Time;durP1;ratioP1;P1;durP2;ratioP2;P2;SDS_P1;SDS_P2;PMS_P1;PMS_P2;Temp;Humidity;BMP_temperature;BMP_pressure;BME280_temperature;BME280_humidity;BME280_pressure;Samples;Min_cycle;Max_cycle;Signal;HPM_P1;HPM_P2
2021/12/23 00:02:19;;;;;;;9.83;4.97;;;;;;;18.21;49.35;100743.00;5026701;28;20191;-74
2021/12/23 00:04:48;;;;;;;10.73;5.07;;;;;;;18.12;49.87;100730.91;5033474;28;20211;-73
2021/12/23 00:07:13;;;;;;;8.13;4.40;;;;;;;18.17;49.88;100733.50;5033906;28;20219;-74
2021/12/23 00:10:23;;;;;;;11.80;5.30;;;;;;;18.17;49.58;100725.75;5030272;28;20483;-74
2021/12/23 00:12:24;;;;;;;8.33;5.10;;;;;;;18.08;49.85;100715.69;5026158;28;20196;-75
2021/12/23 00:14:51;;;;;;;9.90;4.90;;;;;;;18.12;49.68;100711.72;5030707;28;20512;-74
2021/12/23 00:18:30;;;;;;;9.70;5.03;;;;;;;18.09;49.66;100711.63;5028103;28;20186;-74
2021/12/23 00:25:21;;;;;;;7.77;3.90;;;;;;;18.03;50.04;100711.09;5051041;28;20271;-74
2021/12/23 00:27:47;;;;;;;6.80;3.90;;;;;;;18.10;49.81;100699.84;5012642;28;20462;-74
2021/12/23 00:30:12;;;;;;;7.80;4.80;;;;;;;18.01;50.77;100696.34;5033312;28;20560;-74
2021/12/23 00:32:38;;;;;;;9.80;5.10;;;;;;;18.00;50.24;100694.69;5031917;28;20233;-74
2021/12/23 00:35:04;;;;;;;11.00;5.00;;;;;;;18.03;50.17;100691.09;5017539;28;20667;-74
2021/12/23 00:37:39;;;;;;;8.30;4.80;;;;;;;18.01;50.49;100690.63;5016862;28;20180;-74
2021/12/23 00:40:05;;;;;;;8.03;4.60;;;;;;;17.99;50.18;100687.31;5026261;28;20437;-76
2021/12/23 00:42:33;;;;;;;7.20;4.43;;;;;;;18.03;50.04;100691.09;5033843;28;20443;-74
2021/12/23 00:44:58;;;;;;;7.77;4.70;;;;;;;18.00;49.94;100682.41;5017995;28;20441;-74
2021/12/23 00:47:24;;;;;;;6.33;4.30;;;;;;;17.98;50.21;100677.09;5050093;28;20418;-75
2021/12/23 00:49:50;;;;;;;8.80;4.77;;;;;;;17.95;50.53;100674.97;5030492;28;20200;-74
2021/12/23 00:52:18;;;;;;;7.63;5.00;;;;;;;17.91;50.97;100667.50;5013157;28;20176;-75
2021/12/23 00:54:43;;;;;;;9.40;4.73;;;;;;;17.98;49.92;100659.94;5007432;28;20226;-75
2021/12/23 00:57:09;;;;;;;6.77;4.73;;;;;;;17.97;50.16;100652.56;5032982;28;20430;-74
2021/12/23 00:59:37;;;;;;;8.30;4.77;;;;;;;17.94;50.54;100650.47;5030242;28;20172;-74
2021/12/23 01:02:06;;;;;;;8.93;5.07;;;;;;;17.97;50.21;100644.00;5042150;28;20237;-75
2021/12/23 01:04:32;;;;;;;7.00;5.23;;;;;;;17.96;50.39;100639.47;5033072;28;20445;-74
2021/12/23 01:06:58;;;;;;;9.20;4.93;;;;;;;17.98;50.05;100636.25;5048558;28;20467;-76
2021/12/23 01:09:23;;;;;;;6.23;4.43;;;;;;;17.99;49.99;100632.19;5026958;28;20463;-76
2021/12/23 01:11:50;;;;;;;7.50;4.47;;;;;;;17.97;50.66;100629.72;5012588;28;20190;-76
2021/12/23 01:19:25;;;;;;;5.57;4.40;;;;;;;17.96;50.05;100630.91;5033094;28;20902;-75
2021/12/23 01:21:50;;;;;;;10.27;4.80;;;;;;;17.98;50.61;100622.81;5011968;28;20496;-75
2021/12/23 01:24:16;;;;;;;6.80;4.27;;;;;;;18.05;49.99;100625.84;5030566;28;20457;-75
2021/12/23 01:26:41;;;;;;;7.27;4.17;;;;;;;18.09;49.85;100623.91;5013795;28;20187;-75
2021/12/23 01:29:07;;;;;;;8.43;5.20;;;;;;;18.05;50.10;100630.72;5031687;28;20188;-74
2021/12/23 01:31:33;;;;;;;8.30;5.30;;;;;;;18.05;50.20;100625.00;5023369;28;20215;-74
2021/12/23 01:33:58;;;;;;;8.47;5.37;;;;;;;18.06;49.98;100626.69;5029411;28;20559;-75
2021/12/23 01:36:25;;;;;;;8.67;4.13;;;;;;;17.97;50.21;100621.13;5045608;28;20658;-74
2021/12/23 01:38:50;;;;;;;6.00;4.20;;;;;;;18.07;50.22;100599.75;5031813;28;20168;-74
2021/12/23 01:41:16;;;;;;;8.50;4.93;;;;;;;18.05;50.48;100605.84;5041717;28;20873;-75
2021/12/23 01:43:42;;;;;;;8.43;5.20;;;;;;;17.99;50.01;100613.03;5013604;28;20537;-74
2021/12/23 01:46:08;;;;;;;9.33;4.80;;;;;;;17.93;50.51;100616.53;5046954;28;20234;-74
2021/12/23 01:48:33;;;;;;;6.67;4.07;;;;;;;17.92;50.40;100612.88;5031893;28;20204;-74
2021/12/23 01:50:59;;;;;;;13.57;5.20;;;;;;;17.90;50.39;100612.41;5031974;28;20187;-74
2021/12/23 01:53:24;;;;;;;7.60;4.73;;;;;;;17.93;50.29;100614.53;5012323;28;20211;-74
2021/12/23 01:55:50;;;;;;;6.73;4.30;;;;;;;17.97;50.04;100618.28;5031360;28;20638;-74
2021/12/23 01:58:15;;;;;;;8.80;4.20;;;;;;;17.98;50.16;100601.97;5031179;28;20258;-74
2021/12/23 02:00:46;;;;;;;7.50;4.70;;;;;;;17.92;50.09;100595.75;5046534;28;20195;-74
2021/12/23 02:03:12;;;;;;;7.50;4.40;;;;;;;17.91;50.74;100590.38;5032423;28;20172;-75
2021/12/23 02:05:37;;;;;;;6.50;4.50;;;;;;;17.91;50.62;100576.91;5031051;28;20754;-74
2021/12/23 02:08:03;;;;;;;7.90;4.23;;;;;;;17.87;50.46;100567.47;5032563;28;20186;-74
2021/12/23 02:10:29;;;;;;;8.87;4.30;;;;;;;17.90;50.29;100566.69;5028798;28;20667;-74
2021/12/23 02:12:54;;;;;;;7.70;4.50;;;;;;;17.90;50.10;100578.13;5031039;28;20700;-75
2021/12/23 02:15:20;;;;;;;6.70;4.80;;;;;;;17.91;50.33;100582.63;5029793;28;20726;-74
2021/12/23 02:17:47;;;;;;;8.10;4.83;;;;;;;17.93;50.21;100571.69;5031207;28;20187;-76
2021/12/23 02:20:14;;;;;;;5.90;4.30;;;;;;;17.93;50.30;100582.25;5029951;28;20181;-75
2021/12/23 02:22:40;;;;;;;5.90;4.17;;;;;;;17.90;50.00;100589.53;5030827;28;20445;-74
2021/12/23 02:25:06;;;;;;;7.13;4.37;;;;;;;17.97;50.23;100580.34;5047454;28;20430;-74
2021/12/23 02:27:32;;;;;;;7.33;4.30;;;;;;;17.97;50.28;100572.56;5039762;28;20477;-75
2021/12/23 02:29:57;;;;;;;7.70;5.00;;;;;;;17.91;50.25;100568.34;5048445;28;20472;-74
2021/12/23 02:32:23;;;;;;;8.53;5.30;;;;;;;17.99;49.96;100558.75;5045798;28;22637;-74
2021/12/23 02:34:48;;;;;;;7.13;4.40;;;;;;;17.89;50.47;100556.47;5045641;28;20221;-75
2021/12/23 02:37:14;;;;;;;6.47;4.20;;;;;;;17.94;49.93;100561.91;5029614;28;20168;-74
2021/12/23 02:39:40;;;;;;;9.43;4.40;;;;;;;17.96;49.72;100556.63;5037660;28;20758;-74
2021/12/23 02:42:05;;;;;;;7.03;4.20;;;;;;;18.04;49.69;100549.91;5032205;28;20426;-73
2021/12/23 02:44:31;;;;;;;9.80;4.53;;;;;;;18.01;49.80;100544.13;5039432;28;20181;-74
2021/12/23 02:46:56;;;;;;;7.33;4.40;;;;;;;18.02;49.91;100540.06;5029331;28;21130;-74
2021/12/23 02:49:22;;;;;;;8.20;4.00;;;;;;;17.94;50.26;100539.06;5047262;28;20204;-74
2021/12/23 02:51:47;;;;;;;7.90;4.80;;;;;;;18.02;49.82;100531.47;5031926;28;20245;-74
2021/12/23 02:54:13;;;;;;;6.87;4.57;;;;;;;17.95;50.14;100537.84;5021099;28;20188;-74
2021/12/23 02:56:38;;;;;;;7.60;4.20;;;;;;;17.95;50.04;100540.72;5029626;28;20290;-76
2021/12/23 02:59:07;;;;;;;7.23;4.07;;;;;;;17.99;49.82;100535.91;5047321;28;20186;-75
2021/12/23 03:01:32;;;;;;;6.77;5.00;;;;;;;18.02;49.87;100522.91;5032122;28;20168;-75
2021/12/23 03:03:59;;;;;;;7.60;5.10;;;;;;;17.96;50.25;100530.94;5032426;28;20476;-74
2021/12/23 03:06:25;;;;;;;6.93;4.57;;;;;;;18.00;49.91;100531.84;5046921;28;20862;-75
2021/12/23 03:09:02;;;;;;;5.17;3.93;;;;;;;17.92;50.18;100535.75;5021147;28;20486;-75
2021/12/23 03:11:28;;;;;;;7.40;4.47;;;;;;;17.86;50.29;100530.69;5022444;28;20869;-74
2021/12/23 03:13:54;;;;;;;7.70;4.70;;;;;;;17.88;50.45;100534.84;5029930;28;20533;-74
2021/12/23 03:16:21;;;;;;;6.70;4.57;;;;;;;17.94;50.09;100539.06;5048016;28;20179;-73
2021/12/23 03:18:46;;;;;;;8.50;4.50;;;;;;;17.96;50.38;100530.94;5013945;28;20236;-74
2021/12/23 03:21:12;;;;;;;6.83;3.83;;;;;;;17.94;50.10;100529.66;5026905;28;20443;-74
2021/12/23 03:23:37;;;;;;;7.87;4.60;;;;;;;17.91;50.28;100524.69;5031366;28;20755;-74
2021/12/23 03:26:03;;;;;;;5.83;3.97;;;;;;;17.85;50.20;100529.03;5025715;28;20267;-74
2021/12/23 03:28:29;;;;;;;12.60;4.93;;;;;;;17.89;50.06;100518.50;5026026;28;20443;-74
2021/12/23 03:30:54;;;;;;;7.17;4.67;;;;;;;17.82;50.37;100501.22;5048388;28;20425;-75
2021/12/23 03:33:20;;;;;;;6.83;4.43;;;;;;;17.88;50.21;100500.56;5030452;28;20180;-74
2021/12/23 03:35:46;;;;;;;7.93;4.30;;;;;;;17.85;50.16;100498.44;5029735;28;20226;-75
2021/12/23 03:38:11;;;;;;;6.57;4.47;;;;;;;17.85;50.11;100500.47;5009746;28;20190;-74
2021/12/23 03:40:37;;;;;;;6.10;3.87;;;;;;;17.85;50.13;100515.56;5027956;28;20169;-74
2021/12/23 03:43:03;;;;;;;6.23;3.90;;;;;;;17.89;49.88;100507.91;5027171;28;20183;-74
2021/12/23 03:45:28;;;;;;;10.23;4.67;;;;;;;17.85;50.25;100514.75;5027551;28;20196;-74
2021/12/23 03:47:54;;;;;;;7.30;4.73;;;;;;;17.89;50.40;100509.94;5020875;28;20180;-74
2021/12/23 03:50:20;;;;;;;5.87;3.87;;;;;;;17.88;50.00;100511.97;5030775;28;20207;-74
2021/12/23 03:52:48;;;;;;;6.00;4.00;;;;;;;17.83;50.24;100503.69;5032000;28;20263;-75
2021/12/23 03:55:14;;;;;;;5.50;4.20;;;;;;;17.89;50.39;100492.81;5033422;28;20429;-76
2021/12/23 03:57:39;;;;;;;8.13;4.40;;;;;;;17.94;49.83;100499.06;5045254;28;20430;-75
2021/12/23 04:00:07;;;;;;;5.03;3.63;;;;;;;17.91;50.22;100493.28;5050961;28;20168;-75
2021/12/23 04:02:32;;;;;;;9.87;5.50;;;;;;;17.91;50.02;100491.22;5051168;28;20180;-74
2021/12/23 04:04:58;;;;;;;6.03;3.87;;;;;;;17.91;50.04;100476.94;5030887;28;20560;-74
2021/12/23 04:07:23;;;;;;;7.13;4.63;;;;;;;17.84;50.16;100482.50;5029686;28;20236;-74
2021/12/23 04:09:49;;;;;;;6.30;4.10;;;;;;;17.92;49.92;100483.50;5033801;28;20203;-74
2021/12/23 04:12:14;;;;;;;6.40;4.53;;;;;;;17.92;49.94;100469.22;5050251;28;20187;-74
2021/12/23 04:14:39;;;;;;;6.90;4.53;;;;;;;17.95;49.81;100462.75;5017116;28;20180;-76
2021/12/23 04:17:05;;;;;;;6.13;4.17;;;;;;;17.93;49.94;100457.44;5031093;28;20188;-74
2021/12/23 04:19:32;;;;;;;6.67;4.30;;;;;;;17.96;49.72;100450.13;5033606;28;20176;-75
2021/12/23 04:21:58;;;;;;;5.80;4.33;;;;;;;17.93;49.94;100446.00;5033205;28;20192;-75
2021/12/23 04:24:24;;;;;;;5.73;3.90;;;;;;;17.97;49.66;100444.03;5049770;28;20426;-76
2021/12/23 04:26:50;;;;;;;5.57;3.60;;;;;;;18.00;49.90;100448.16;5016366;28;20194;-76
2021/12/23 04:29:15;;;;;;;8.80;5.10;;;;;;;17.99;49.83;100437.94;5032013;28;20207;-74
2021/12/23 04:31:40;;;;;;;5.87;3.93;;;;;;;17.94;49.94;100436.22;5028861;28;20439;-74
2021/12/23 04:34:06;;;;;;;6.30;4.10;;;;;;;17.88;49.91;100436.88;5020533;28;20191;-74
2021/12/23 04:36:32;;;;;;;7.20;5.03;;;;;;;17.89;49.94;100439.38;5050538;28;20695;-74
2021/12/23 04:39:01;;;;;;;5.07;3.77;;;;;;;17.87;49.85;100450.34;5049235;28;20234;-74
2021/12/23 04:41:27;;;;;;;6.93;4.73;;;;;;;17.88;50.01;100457.72;5046413;28;20456;-75
2021/12/23 04:43:52;;;;;;;6.10;4.40;;;;;;;17.87;50.26;100447.50;5032749;28;20422;-75
2021/12/23 04:46:17;;;;;;;6.87;4.17;;;;;;;17.87;49.94;100453.22;5045841;28;20192;-75
2021/12/23 04:48:45;;;;;;;5.70;4.10;;;;;;;17.86;50.25;100460.09;5049322;28;20196;-74
2021/12/23 04:51:12;;;;;;;11.00;5.03;;;;;;;17.83;50.01;100446.59;5048186;28;20233;-74
2021/12/23 04:53:38;;;;;;;6.20;3.90;;;;;;;17.84;49.99;100444.53;5033115;28;21074;-75
2021/12/23 04:56:03;;;;;;;5.30;3.80;;;;;;;17.80;50.01;100444.47;5013308;28;20450;-73
2021/12/23 04:58:29;;;;;;;6.63;4.13;;;;;;;17.87;50.39;100441.78;5032357;28;20385;-76
2021/12/23 05:00:54;;;;;;;7.90;4.17;;;;;;;17.80;50.00;100430.19;5023153;28;20604;-74
2021/12/23 05:03:21;;;;;;;5.77;3.97;;;;;;;17.84;49.88;100428.25;5031832;28;20176;-75
2021/12/23 05:05:47;;;;;;;7.07;5.03;;;;;;;17.86;49.86;100422.97;5045647;28;20712;-75
2021/12/23 05:08:15;;;;;;;6.27;4.50;;;;;;;17.86;50.27;100414.41;5042530;28;20434;-74
2021/12/23 05:10:41;;;;;;;7.17;3.60;;;;;;;17.87;50.29;100413.22;5032753;28;20176;-75
2021/12/23 05:13:06;;;;;;;7.33;4.37;;;;;;;17.84;50.09;100410.28;4998870;28;20795;-74
2021/12/23 05:15:32;;;;;;;6.97;4.20;;;;;;;17.88;50.04;100406.31;5008668;28;20184;-74
2021/12/23 05:17:58;;;;;;;4.50;3.60;;;;;;;17.90;49.71;100414.50;5047615;28;20210;-74
2021/12/23 05:20:23;;;;;;;5.93;4.47;;;;;;;17.92;49.50;100420.66;5047014;28;20190;-74
2021/12/23 05:22:49;;;;;;;5.90;4.67;;;;;;;17.92;50.11;100417.81;5031265;28;20183;-75
2021/12/23 05:25:14;;;;;;;5.40;3.90;;;;;;;18.01;49.87;100424.13;5032183;28;20195;-75
2021/12/23 05:27:40;;;;;;;6.43;5.00;;;;;;;17.96;49.94;100416.66;5028503;28;20192;-75
2021/12/23 05:30:07;;;;;;;6.27;3.87;;;;;;;17.95;49.57;100422.75;5031476;28;20203;-74
2021/12/23 05:32:33;;;;;;;6.10;4.10;;;;;;;17.93;49.69;100413.75;5031860;28;20730;-74
2021/12/23 05:34:59;;;;;;;5.10;4.00;;;;;;;18.01;49.79;100419.22;5038815;28;20882;-74
2021/12/23 05:37:24;;;;;;;6.13;4.23;;;;;;;18.02;49.48;100423.75;5037278;28;20480;-74
2021/12/23 05:39:50;;;;;;;5.20;3.70;;;;;;;17.95;49.34;100429.31;5048845;28;20187;-75
2021/12/23 05:42:15;;;;;;;5.03;3.60;;;;;;;18.01;49.48;100415.56;5042368;28;20195;-74
2021/12/23 05:44:41;;;;;;;5.40;3.90;;;;;;;18.07;49.40;100420.59;5030666;28;20262;-73
2021/12/23 05:47:06;;;;;;;5.70;4.10;;;;;;;18.06;49.32;100410.38;5025044;28;20191;-74
2021/12/23 05:49:32;;;;;;;7.20;4.20;;;;;;;18.01;49.61;100407.81;5028430;28;20195;-74
2021/12/23 05:51:57;;;;;;;6.70;4.00;;;;;;;18.09;49.44;100401.06;5048657;28;20176;-74
2021/12/23 05:54:23;;;;;;;5.43;4.00;;;;;;;17.95;49.42;100386.47;5032993;28;20191;-76
2021/12/23 05:56:49;;;;;;;5.90;3.80;;;;;;;17.92;49.89;100378.66;5045641;28;20261;-75
2021/12/23 05:59:14;;;;;;;5.97;3.90;;;;;;;17.89;49.69;100367.97;5032828;28;20560;-74
2021/12/23 06:01:40;;;;;;;6.37;4.53;;;;;;;17.86;50.33;100373.63;5021777;28;20184;-74
2021/12/23 06:04:05;;;;;;;5.70;3.73;;;;;;;17.94;49.79;100390.53;5032461;28;20214;-74
2021/12/23 06:06:30;;;;;;;4.70;3.57;;;;;;;17.93;49.84;100391.72;5030977;28;20243;-74
2021/12/23 06:08:57;;;;;;;6.30;4.10;;;;;;;17.92;49.39;100387.22;5049765;28;20223;-74
2021/12/23 06:11:22;;;;;;;6.23;4.20;;;;;;;17.87;49.93;100380.97;5044215;28;20870;-75
2021/12/23 06:13:48;;;;;;;5.20;4.10;;;;;;;17.89;49.74;100382.25;5029537;28;20176;-74
2021/12/23 06:16:13;;;;;;;6.63;4.27;;;;;;;17.86;49.95;100382.19;5028368;28;20176;-75
2021/12/23 06:18:39;;;;;;;5.00;4.00;;;;;;;17.88;49.81;100386.31;5029988;28;20180;-74
2021/12/23 06:21:04;;;;;;;5.70;4.30;;;;;;;17.85;50.09;100371.97;5064346;28;20237;-76
2021/12/23 06:23:31;;;;;;;6.10;4.40;;;;;;;17.85;50.09;100374.81;5031860;28;20179;-75
2021/12/23 06:25:56;;;;;;;6.07;4.03;;;;;;;17.86;50.07;100367.91;5050228;28;20191;-74
2021/12/23 06:28:22;;;;;;;5.90;4.20;;;;;;;17.85;49.98;100371.97;5027640;28;20847;-75
2021/12/23 06:30:47;;;;;;;4.60;3.87;;;;;;;17.84;50.13;100370.28;5038787;28;20353;-74
2021/12/23 06:33:13;;;;;;;7.10;4.27;;;;;;;17.88;49.90;100371.19;5047107;28;20698;-74
2021/12/23 06:35:38;;;;;;;5.90;4.40;;;;;;;17.85;49.83;100378.47;5027909;28;20589;-74
2021/12/23 06:38:09;;;;;;;6.50;4.37;;;;;;;17.86;49.92;100377.28;5022425;28;20176;-75
2021/12/23 06:40:34;;;;;;;6.20;3.60;;;;;;;17.93;49.58;100368.88;5032320;28;20182;-74
2021/12/23 06:43:00;;;;;;;5.73;4.00;;;;;;;17.98;49.62;100362.03;5038591;28;20431;-74
2021/12/23 06:45:25;;;;;;;6.67;4.43;;;;;;;17.90;50.07;100349.63;5031389;28;20833;-74
2021/12/23 06:47:51;;;;;;;6.33;4.13;;;;;;;17.92;49.92;100343.53;5028915;28;20555;-74
2021/12/23 06:50:18;;;;;;;5.80;3.97;;;;;;;17.98;49.57;100345.72;5028728;28;20207;-74
2021/12/23 06:52:44;;;;;;;5.60;4.27;;;;;;;18.00;49.51;100343.31;5039813;28;20226;-74
2021/12/23 06:55:11;;;;;;;4.30;3.63;;;;;;;18.00;49.42;100340.47;5010202;28;20530;-75
2021/12/23 06:57:40;;;;;;;8.10;4.10;;;;;;;18.01;49.59;100344.97;5027997;28;20434;-75
2021/12/23 07:00:07;;;;;;;5.63;4.50;;;;;;;18.04;49.31;100361.38;5028382;28;20422;-74
2021/12/23 07:02:35;;;;;;;5.30;4.30;;;;;;;18.11;49.13;100354.97;5045792;28;20439;-75
2021/12/23 07:05:00;;;;;;;5.57;4.40;;;;;;;18.07;49.17;100348.34;5039871;28;20450;-74
2021/12/23 07:07:30;;;;;;;7.30;4.10;;;;;;;18.05;49.40;100357.28;5047425;28;20492;-74
2021/12/23 07:09:55;;;;;;;5.00;3.70;;;;;;;18.06;49.64;100353.22;5037255;28;20220;-75
2021/12/23 07:12:21;;;;;;;7.40;4.07;;;;;;;18.05;49.24;100363.00;5048069;28;20440;-74
2021/12/23 07:14:46;;;;;;;5.83;3.73;;;;;;;18.00;49.67;100356.75;5047636;28;20183;-74
2021/12/23 07:17:12;;;;;;;5.20;3.80;;;;;;;17.95;49.60;100352.19;5047812;28;20442;-74
2021/12/23 07:19:37;;;;;;;5.10;4.10;;;;;;;17.96;49.84;100342.41;5017162;28;20190;-76
2021/12/23 07:22:03;;;;;;;6.20;4.10;;;;;;;17.89;50.04;100359.41;5050932;28;20172;-74
2021/12/23 07:24:28;;;;;;;5.70;4.17;;;;;;;17.96;49.98;100361.59;5029867;28;20189;-74
2021/12/23 07:26:54;;;;;;;4.40;3.37;;;;;;;17.97;49.49;100354.66;5034259;28;20179;-75
2021/12/23 07:29:20;;;;;;;7.80;3.93;;;;;;;17.97;49.86;100355.47;5031787;28;20226;-73
2021/12/23 07:31:45;;;;;;;5.10;4.00;;;;;;;17.95;49.73;100372.19;5034325;28;20199;-75
2021/12/23 07:34:11;;;;;;;6.23;4.20;;;;;;;17.98;49.45;100380.00;5034148;28;20882;-75
2021/12/23 07:36:36;;;;;;;4.93;4.00;;;;;;;18.04;49.64;100363.38;5041594;28;20191;-74
2021/12/23 07:39:02;;;;;;;5.33;3.70;;;;;;;17.94;49.79;100361.97;5035299;28;20210;-74
2021/12/23 07:41:29;;;;;;;7.13;3.87;;;;;;;17.96;49.76;100359.53;5015547;28;20682;-74
2021/12/23 07:44:04;;;;;;;4.97;3.70;;;;;;;17.92;49.73;100347.25;5040689;28;20234;-74
2021/12/23 07:46:31;;;;;;;5.20;4.20;;;;;;;17.89;49.64;100345.13;5035583;28;20468;-76
2021/12/23 07:48:57;;;;;;;4.83;3.70;;;;;;;17.92;49.75;100355.81;5050778;28;21364;-75
2021/12/23 07:51:23;;;;;;;6.90;3.97;;;;;;;17.97;49.58;100366.09;5022101;28;20465;-75
2021/12/23 07:53:49;;;;;;;6.20;4.10;;;;;;;17.89;49.99;100372.84;5014458;28;20887;-74
2021/12/23 07:56:14;;;;;;;5.20;4.20;;;;;;;17.93;50.13;100374.59;5003686;28;20439;-74
2021/12/23 07:58:39;;;;;;;7.10;4.33;;;;;;;17.97;50.26;100371.81;5052171;28;20177;-74
2021/12/23 08:01:05;;;;;;;5.70;3.90;;;;;;;17.91;49.72;100374.13;5031617;28;20269;-75
2021/12/23 08:03:31;;;;;;;4.93;3.60;;;;;;;17.92;49.60;100372.94;5047062;28;20189;-74
2021/12/23 08:05:56;;;;;;;5.70;4.00;;;;;;;17.91;49.38;100361.88;5013893;28;20639;-74
2021/12/23 08:08:21;;;;;;;4.87;3.67;;;;;;;17.95;49.45;100363.59;5029447;28;20279;-75
2021/12/23 08:10:48;;;;;;;6.83;3.97;;;;;;;17.91;50.00;100362.69;5032126;28;20176;-75
2021/12/23 08:13:15;;;;;;;6.57;4.23;;;;;;;17.97;49.76;100377.53;5035017;28;20183;-76
2021/12/23 08:15:40;;;;;;;5.60;3.77;;;;;;;17.93;49.66;100360.31;5033543;28;20500;-75
2021/12/23 08:18:06;;;;;;;5.97;4.00;;;;;;;18.01;49.40;100369.88;5035360;28;20991;-74
2021/12/23 08:20:31;;;;;;;5.50;4.20;;;;;;;18.01;49.67;100355.59;5045443;28;20264;-76
2021/12/23 08:22:57;;;;;;;6.70;4.50;;;;;;;18.04;49.40;100361.38;5027940;28;20179;-74
2021/12/23 08:25:23;;;;;;;5.07;4.00;;;;;;;18.05;49.94;100367.88;5033243;28;20187;-76
2021/12/23 08:27:48;;;;;;;7.17;4.13;;;;;;;18.08;49.05;100367.97;5034530;28;20168;-73
2021/12/23 08:30:14;;;;;;;5.67;4.00;;;;;;;18.15;49.13;100367.28;5041201;28;20552;-75
2021/12/23 08:32:40;;;;;;;4.57;3.47;;;;;;;18.08;49.08;100370.84;5049876;28;20233;-75
2021/12/23 08:35:06;;;;;;;5.27;3.93;;;;;;;18.08;49.25;100367.97;5045846;28;20189;-76
2021/12/23 08:37:31;;;;;;;6.70;4.10;;;;;;;18.10;49.39;100371.28;5032963;28;20183;-75
2021/12/23 08:39:56;;;;;;;6.63;3.90;;;;;;;18.08;49.40;100355.72;5049022;28;20183;-74
2021/12/23 08:42:23;;;;;;;5.20;3.80;;;;;;;18.01;49.38;100350.69;5033034;28;20179;-74
2021/12/23 08:44:48;;;;;;;6.67;4.40;;;;;;;17.97;49.66;100352.63;5017266;28;20194;-74
2021/12/23 08:47:14;;;;;;;7.70;4.20;;;;;;;17.99;49.42;100347.38;5042505;28;21048;-75
2021/12/23 08:49:43;;;;;;;6.70;4.30;;;;;;;17.96;49.87;100339.56;5030251;28;20196;-74
2021/12/23 08:52:09;;;;;;;6.30;4.10;;;;;;;17.95;49.86;100335.03;5020935;28;20429;-74
2021/12/23 08:54:35;;;;;;;6.03;4.10;;;;;;;18.00;49.64;100336.75;5064190;28;20426;-75
2021/12/23 08:57:00;;;;;;;4.70;3.70;;;;;;;18.00;49.68;100331.88;5046877;28;20180;-74
2021/12/23 08:59:26;;;;;;;6.13;3.90;;;;;;;18.00;49.57;100319.63;5033165;28;20168;-74
2021/12/23 09:01:52;;;;;;;7.50;4.30;;;;;;;17.96;49.63;100321.59;5048147;28;20709;-74
2021/12/23 09:04:17;;;;;;;6.23;4.23;;;;;;;17.95;49.66;100315.06;5048962;28;20500;-74
2021/12/23 09:06:43;;;;;;;5.73;3.83;;;;;;;17.95;49.90;100319.94;5032828;28;20298;-75
2021/12/23 09:09:09;;;;;;;5.47;4.03;;;;;;;18.02;49.54;100312.31;5033389;28;20283;-74
2021/12/23 09:11:34;;;;;;;6.17;4.03;;;;;;;17.98;49.51;100316.34;5045906;28;20207;-74
2021/12/23 09:14:00;;;;;;;6.20;4.50;;;;;;;17.93;49.52;100313.78;5032343;28;20614;-73
2021/12/23 09:16:25;;;;;;;5.43;4.10;;;;;;;17.95;49.79;100311.34;5022128;28;20179;-73
2021/12/23 09:18:51;;;;;;;6.23;4.30;;;;;;;17.98;49.95;100311.47;5048571;28;20168;-74
2021/12/23 09:21:16;;;;;;;7.60;3.80;;;;;;;17.97;49.83;100304.06;5049707;28;20172;-74
2021/12/23 09:23:42;;;;;;;5.57;4.30;;;;;;;17.95;49.67;100289.34;5048959;28;20193;-75
2021/12/23 09:26:10;;;;;;;5.53;3.83;;;;;;;17.96;49.72;100295.91;5046638;28;20549;-74
2021/12/23 09:28:57;;;;;;;5.30;3.90;;;;;;;17.98;49.57;100291.47;5032135;28;20164;-74
2021/12/23 09:34:06;;;;;;;7.17;4.70;;;;;;;17.97;49.75;100300.41;5035250;28;20917;-74
2021/12/23 09:36:32;;;;;;;6.30;4.87;;;;;;;17.97;49.45;100295.50;5032984;28;20438;-74
2021/12/23 09:38:57;;;;;;;5.60;4.00;;;;;;;18.05;49.57;100294.44;5028140;28;20180;-74
2021/12/23 09:41:23;;;;;;;5.80;4.10;;;;;;;18.08;49.45;100295.72;5033034;28;20219;-74
2021/12/23 09:43:49;;;;;;;5.90;4.53;;;;;;;18.05;49.28;100296.47;5048517;28;20650;-74
2021/12/23 09:46:16;;;;;;;5.60;4.20;;;;;;;18.08;49.24;100299.41;5037473;28;20195;-74
2021/12/23 09:48:43;;;;;;;5.90;4.10;;;;;;;18.05;49.11;100293.59;5028509;28;20180;-75
2021/12/23 09:51:09;;;;;;;6.47;4.37;;;;;;;18.09;49.39;100288.78;5017885;28;20477;-73
2021/12/23 09:53:36;;;;;;;4.60;3.70;;;;;;;18.11;49.48;100287.22;5048975;28;20434;-74
2021/12/23 09:56:01;;;;;;;5.13;3.70;;;;;;;18.05;49.54;100283.03;5032058;28;20505;-74
2021/12/23 09:58:28;;;;;;;6.63;4.10;;;;;;;18.14;49.11;100274.19;5032168;28;20449;-74
2021/12/23 10:00:54;;;;;;;6.10;4.33;;;;;;;18.11;49.10;100281.50;5031519;28;20658;-74
2021/12/23 10:03:20;;;;;;;6.00;4.30;;;;;;;18.15;49.14;100270.13;5032097;28;20480;-74
2021/12/23 10:05:47;;;;;;;6.07;3.97;;;;;;;18.12;49.16;100273.78;5026907;28;20725;-74
2021/12/23 10:08:14;;;;;;;5.67;4.20;;;;;;;18.18;49.11;100275.94;5015298;28;20437;-74
2021/12/23 10:10:52;;;;;;;5.97;3.90;;;;;;;18.13;48.90;100279.09;5031395;28;20565;-74
2021/12/23 10:38:33;;;;;;;5.30;4.03;;;;;;;17.99;49.91;100269.41;5036495;28;20425;-74
2021/12/23 10:41:02;;;;;;;6.07;4.10;;;;;;;18.00;49.53;100273.91;5015275;28;20429;-75
2021/12/23 10:43:41;;;;;;;5.80;3.67;;;;;;;18.05;49.49;100268.72;5031097;28;20868;-74
2021/12/23 10:46:33;;;;;;;5.00;3.83;;;;;;;18.00;49.68;100268.22;5032350;28;20532;-74
2021/12/23 10:52:18;;;;;;;5.50;3.77;;;;;;;18.01;49.61;100253.56;5030039;28;20544;-75
2021/12/23 10:58:02;;;;;;;6.97;4.07;;;;;;;18.04;49.90;100229.94;5031507;28;20766;-74
2021/12/23 11:00:29;;;;;;;5.77;3.70;;;;;;;18.06;49.42;100238.16;5042111;28;20537;-74
2021/12/23 11:06:05;;;;;;;6.67;4.03;;;;;;;18.11;49.22;100237.84;5049213;28;20410;-74
2021/12/23 11:08:57;;;;;;;6.83;4.13;;;;;;;18.06;49.31;100221.81;5032391;28;20418;-74
2021/12/23 11:12:12;;;;;;;5.47;3.70;;;;;;;18.08;49.53;100219.44;5038367;28;20421;-75
2021/12/23 11:43:58;;;;;;;6.80;4.03;;;;;;;18.16;48.71;100124.03;5035073;28;20441;-74
2021/12/23 11:46:25;;;;;;;5.63;4.17;;;;;;;18.11;49.30;100121.50;5030989;28;20429;-74
2021/12/23 11:48:54;;;;;;;4.97;3.80;;;;;;;18.19;49.33;100117.56;5054258;28;20950;-74
2021/12/23 11:51:28;;;;;;;5.97;3.80;;;;;;;18.08;49.27;100113.72;5014449;28;20479;-74
2021/12/23 11:53:53;;;;;;;5.80;4.00;;;;;;;18.13;49.01;100104.84;5030726;28;20445;-75
2021/12/23 11:56:19;;;;;;;5.63;4.17;;;;;;;18.19;48.88;100100.44;5014710;28;20426;-75
2021/12/23 11:58:47;;;;;;;4.60;3.70;;;;;;;18.12;49.25;100086.00;5046286;28;20237;-74
2021/12/23 12:01:20;;;;;;;5.60;3.97;;;;;;;18.09;49.40;100075.38;5017072;28;20192;-74
2021/12/23 12:04:03;;;;;;;5.10;3.70;;;;;;;18.16;49.05;100069.75;5045974;28;20453;-75
2021/12/23 12:06:35;;;;;;;5.23;3.87;;;;;;;18.06;49.55;100073.28;5032703;28;20508;-74
2021/12/23 12:09:27;;;;;;;4.63;3.07;;;;;;;18.11;49.21;100070.09;5051575;28;20450;-75
2021/12/23 12:11:58;;;;;;;6.40;3.80;;;;;;;18.10;49.01;100064.75;5046791;28;20442;-74
2021/12/23 12:14:36;;;;;;;5.10;3.90;;;;;;;18.13;49.27;100067.69;5036845;28;20443;-74
2021/12/23 12:17:26;;;;;;;8.70;4.03;;;;;;;18.17;49.29;100064.88;5014135;28;20950;-74
2021/12/23 12:20:50;;;;;;;7.00;4.83;;;;;;;17.89;48.22;100062.38;5062712;28;20423;-74
2021/12/23 12:23:28;;;;;;;10.87;6.53;;;;;;;17.75;45.78;100059.28;4988369;28;20969;-73
2021/12/23 12:26:12;;;;;;;13.87;7.20;;;;;;;17.82;45.72;100050.84;5045099;28;20442;-73
2021/12/23 12:28:41;;;;;;;11.70;6.00;;;;;;;17.91;45.20;100053.44;5043360;28;20494;-74
2021/12/23 12:31:18;;;;;;;10.30;6.80;;;;;;;17.93;45.56;100059.59;5034623;28;20474;-73
2021/12/23 12:33:53;;;;;;;7.87;5.70;;;;;;;17.96;45.79;100044.56;5030756;28;20415;-74
2021/12/23 12:36:19;;;;;;;8.87;5.70;;;;;;;18.01;46.04;100047.88;5030998;28;20456;-75
2021/12/23 12:38:55;;;;;;;9.63;5.93;;;;;;;17.97;46.35;100052.72;5033019;28;20429;-74
2021/12/23 12:41:31;;;;;;;9.43;5.53;;;;;;;18.00;46.43;100046.25;5016528;28;20553;-74
2021/12/23 12:44:03;;;;;;;8.37;5.40;;;;;;;18.04;46.39;100054.88;5049400;28;20480;-73